Time;durP1;ratioP1;P1;durP2;ratioP2;P2;SDS_P1;SDS_P2;PMS_P1;PMS_P2;Temp;Humidity;BMP_temperature;BMP_pressure;BME280_temperature;BME280_humidity;BME280_pressure;Samples;Min_cycle;Max_cycle;Signal;HPM_P1;HPM_P2
2023/09/17 06:51:33;;;;;;;8.15;4.63;;;;;;;19.20;82.97;96519.53;2083648;28;20546;-69
2023/09/17 06:53:33;;;;;;;7.15;5.10;;;;;;;19.53;81.65;96525.66;2084383;28;20600;-69
2023/09/17 06:54:35;;;;;;;8.35;5.03;;;;;;;19.97;80.81;96515.81;2079855;28;20355;-69
2023/09/17 06:55:36;;;;;;;8.35;4.97;;;;;;;20.41;79.17;96512.97;2073664;28;20756;-70
2023/09/17 06:56:38;;;;;;;10.15;4.38;;;;;;;20.71;77.57;96519.25;2072610;28;20204;-68
2023/09/17 06:57:39;;;;;;;8.35;5.22;;;;;;;21.04;76.22;96522.53;2075326;28;20198;-69
2023/09/17 06:58:42;;;;;;;6.70;4.03;;;;;;;21.23;75.81;96519.09;2073968;28;20233;-69
2023/09/17 06:59:46;;;;;;;8.00;4.35;;;;;;;21.43;74.57;96519.09;2073277;28;20571;-69
2023/09/17 07:00:47;;;;;;;7.32;4.80;;;;;;;21.73;73.46;96515.47;2071419;28;20251;-69
2023/09/17 07:01:49;;;;;;;8.63;4.50;;;;;;;21.83;73.29;96518.13;2074238;28;20246;-69
2023/09/17 07:02:50;;;;;;;5.75;4.10;;;;;;;22.11;72.90;96524.34;2073628;28;20648;-69
2023/09/17 07:04:00;;;;;;;8.25;5.05;;;;;;;22.02;72.86;96523.41;2073382;28;20206;-70
2023/09/17 07:05:04;;;;;;;5.30;4.28;;;;;;;22.10;72.57;96525.34;2068848;28;20877;-69
2023/09/17 07:06:05;;;;;;;6.03;4.30;;;;;;;22.21;72.12;96513.72;2074240;28;20221;-69
2023/09/17 07:07:07;;;;;;;7.55;4.32;;;;;;;22.73;70.49;96518.56;2075165;28;20609;-70
2023/09/17 07:08:08;;;;;;;11.80;4.43;;;;;;;23.02;69.58;96514.91;2067712;28;20216;-69
2023/09/17 07:09:10;;;;;;;11.23;4.68;;;;;;;22.99;69.56;96510.72;2075187;28;20197;-69
2023/09/17 07:10:11;;;;;;;6.15;4.43;;;;;;;23.08;69.37;96516.13;2073959;28;20232;-69
2023/09/17 07:11:13;;;;;;;7.13;4.07;;;;;;;23.13;69.60;96506.72;2070555;28;20199;-69
2023/09/17 07:12:14;;;;;;;8.45;4.78;;;;;;;23.15;69.30;96512.75;2074909;28;20553;-69
2023/09/17 07:13:18;;;;;;;5.85;4.03;;;;;;;23.38;68.47;96511.47;2070573;28;20264;-69
2023/09/17 07:14:20;;;;;;;7.68;4.15;;;;;;;23.69;67.65;96511.91;2069285;28;20222;-69
2023/09/17 07:15:22;;;;;;;7.10;4.38;;;;;;;23.97;66.55;96511.81;2075828;28;20312;-70
2023/09/17 07:16:24;;;;;;;7.72;4.32;;;;;;;24.03;66.29;96516.53;2070738;28;20254;-70
2023/09/17 07:17:26;;;;;;;7.65;4.50;;;;;;;23.86;66.67;96525.38;2072378;28;20608;-69
2023/09/17 07:18:30;;;;;;;7.47;4.47;;;;;;;23.88;66.98;96518.06;2077654;28;20198;-70
2023/09/17 07:19:33;;;;;;;7.82;4.57;;;;;;;23.80;66.79;96510.84;2075711;28;20612;-69
2023/09/17 07:20:36;;;;;;;10.85;6.18;;;;;;;23.93;66.40;96513.97;2071724;28;20215;-69
2023/09/17 07:21:37;;;;;;;13.30;8.20;;;;;;;23.92;66.40;96516.78;2069239;28;20248;-69
2023/09/17 07:22:41;;;;;;;10.48;7.95;;;;;;;24.02;66.20;96522.03;2069381;28;20265;-69
2023/09/17 07:23:43;;;;;;;11.10;7.40;;;;;;;24.26;65.20;96527.53;2072092;28;20198;-69
2023/09/17 07:24:44;;;;;;;9.48;8.10;;;;;;;23.78;66.40;96534.13;2072418;28;20194;-69
2023/09/17 07:25:46;;;;;;;8.57;5.20;;;;;;;23.88;66.16;96528.72;2072795;28;20217;-69
2023/09/17 07:26:47;;;;;;;6.38;4.97;;;;;;;23.88;64.83;96528.72;2071961;28;20195;-69
2023/09/17 07:27:49;;;;;;;5.63;3.83;;;;;;;24.13;64.49;96527.09;2070205;28;20202;-69
2023/09/17 07:28:50;;;;;;;8.32;4.10;;;;;;;24.37;64.60;96530.94;2073193;28;20272;-69
2023/09/17 07:29:53;;;;;;;5.32;3.92;;;;;;;24.42;64.00;96529.44;2076467;28;20202;-69
2023/09/17 07:30:56;;;;;;;11.30;4.70;;;;;;;24.21;64.36;96535.16;2071028;28;20226;-69
2023/09/17 07:31:57;;;;;;;9.07;4.57;;;;;;;24.26;64.47;96540.03;2069731;28;20646;-69
2023/09/17 07:32:59;;;;;;;11.90;4.30;;;;;;;24.69;63.82;96535.63;2075483;28;20719;-69
2023/09/17 07:34:01;;;;;;;8.07;4.50;;;;;;;24.77;63.67;96533.00;2074442;28;20205;-70
2023/09/17 07:35:03;;;;;;;5.75;4.72;;;;;;;25.00;63.07;96540.44;2072741;28;20228;-69
2023/09/17 07:36:06;;;;;;;7.80;4.60;;;;;;;25.00;63.19;96534.22;2073041;28;20226;-69
2023/09/17 07:37:08;;;;;;;5.75;4.30;;;;;;;25.01;63.27;96539.41;2074270;28;20761;-70
2023/09/17 07:38:09;;;;;;;6.53;3.97;;;;;;;25.23;62.25;96540.66;2072522;28;20211;-69
2023/09/17 07:39:11;;;;;;;8.20;4.88;;;;;;;25.36;61.55;96539.38;2073234;28;20195;-69
2023/09/17 07:40:12;;;;;;;5.77;3.93;;;;;;;25.75;61.36;96536.09;2066880;28;20200;-69
2023/09/17 07:41:14;;;;;;;5.10;3.47;;;;;;;25.74;60.81;96542.44;2069202;28;20419;-69
2023/09/17 07:42:16;;;;;;;10.30;4.10;;;;;;;25.70;61.36;96541.94;2071530;28;20431;-69
2023/09/17 07:43:17;;;;;;;5.40;3.53;;;;;;;26.04;61.07;96545.44;2070105;28;20977;-69
2023/09/17 07:44:19;;;;;;;5.97;3.40;;;;;;;26.73;59.30;96543.19;2070800;28;20436;-69
2023/09/17 07:45:20;;;;;;;7.87;3.50;;;;;;;27.20;57.89;96548.69;2072898;28;20429;-69
2023/09/17 07:46:22;;;;;;;3.30;2.80;;;;;;;27.11;57.98;96544.34;2070706;28;20432;-69
2023/09/17 07:47:24;;;;;;;9.73;3.80;;;;;;;27.27;56.76;96548.81;2065729;28;20762;-69
2023/09/17 07:48:29;;;;;;;3.77;2.60;;;;;;;27.05;57.39;96543.22;2077084;28;20453;-70
2023/09/17 07:49:30;;;;;;;6.20;3.20;;;;;;;27.30;56.93;96543.09;2075806;28;20494;-69
2023/09/17 07:50:32;;;;;;;3.90;3.07;;;;;;;27.47;56.67;96543.88;2074750;28;21050;-69
2023/09/17 07:51:33;;;;;;;7.53;3.20;;;;;;;27.25;57.29;96543.63;2073981;28;20481;-69
2023/09/17 07:52:35;;;;;;;4.47;2.90;;;;;;;27.59;56.16;96546.97;2070303;28;20428;-69
2023/09/17 07:53:36;;;;;;;6.63;3.30;;;;;;;27.69;56.10;96547.56;2070260;28;21024;-69
2023/09/17 07:54:40;;;;;;;4.37;2.60;;;;;;;27.65;55.81;96547.06;2073591;28;20437;-69
2023/09/17 07:55:41;;;;;;;3.97;2.83;;;;;;;27.81;54.64;96540.75;2066650;28;21033;-71
2023/09/17 07:56:43;;;;;;;5.83;3.03;;;;;;;27.97;55.02;96544.31;2070329;28;20440;-69
2023/09/17 07:57:46;;;;;;;5.13;2.70;;;;;;;27.61;54.57;96545.78;2071927;28;20478;-69
2023/09/17 07:58:47;;;;;;;6.07;2.40;;;;;;;27.54;55.27;96548.34;2074304;28;20550;-70
2023/09/17 07:59:49;;;;;;;5.83;3.50;;;;;;;27.90;55.07;96540.72;2070549;28;20463;-70
2023/09/17 08:00:53;;;;;;;5.40;2.30;;;;;;;28.39;54.20;96550.19;2073305;28;20819;-70
2023/09/17 08:01:54;;;;;;;5.17;2.23;;;;;;;28.81;52.65;96543.34;2071790;28;20427;-70
2023/09/17 08:02:56;;;;;;;3.80;2.37;;;;;;;28.99;51.71;96546.50;2068670;28;20470;-70
2023/09/17 08:03:58;;;;;;;5.17;2.70;;;;;;;29.10;51.51;96545.22;2074944;28;20422;-70
2023/09/17 08:04:59;;;;;;;4.30;2.40;;;;;;;29.18;51.26;96546.94;2064818;28;20439;-70
2023/09/17 08:06:02;;;;;;;4.03;2.23;;;;;;;28.68;51.43;96546.72;2070467;28;20999;-70
2023/09/17 08:07:04;;;;;;;4.00;2.30;;;;;;;28.72;52.41;96553.41;2061342;28;20746;-70
2023/09/17 08:08:07;;;;;;;3.13;2.30;;;;;;;28.65;52.81;96550.56;2068380;28;20438;-70
2023/09/17 08:09:08;;;;;;;5.43;2.17;;;;;;;29.01;52.10;96551.69;2069414;28;20482;-70
2023/09/17 08:10:10;;;;;;;7.10;2.70;;;;;;;28.94;51.91;96553.47;2067848;28;20432;-69
2023/09/17 08:11:14;;;;;;;3.80;2.33;;;;;;;29.00;52.11;96550.00;2064887;28;20481;-70
2023/09/17 08:12:15;;;;;;;6.43;2.90;;;;;;;28.78;52.13;96560.69;2063874;28;20425;-70
2023/09/17 08:13:17;;;;;;;8.77;2.83;;;;;;;28.63;52.08;96555.31;2067291;28;20808;-70
2023/09/17 08:14:22;;;;;;;8.77;2.60;;;;;;;28.28;52.78;96554.16;2068247;28;20431;-69
2023/09/17 08:15:23;;;;;;;4.03;2.50;;;;;;;28.40;52.45;96554.53;2067058;28;21133;-70
2023/09/17 08:16:25;;;;;;;3.60;2.47;;;;;;;28.59;52.11;96561.22;2064403;28;20543;-70
2023/09/17 08:17:27;;;;;;;5.57;2.20;;;;;;;28.27;52.67;96560.53;2062892;28;20909;-70
2023/09/17 08:18:30;;;;;;;4.43;2.30;;;;;;;27.67;53.23;96560.31;2065987;28;20427;-70
2023/09/17 08:19:32;;;;;;;5.50;2.10;;;;;;;27.08;55.19;96566.16;2066259;28;20435;-70
2023/09/17 08:20:33;;;;;;;5.07;2.50;;;;;;;27.04;55.11;96562.97;2067129;28;20537;-69
2023/09/17 08:21:35;;;;;;;9.83;2.80;;;;;;;26.35;55.31;96563.50;2067441;28;20673;-70
2023/09/17 08:22:37;;;;;;;5.83;2.77;;;;;;;26.23;55.97;96563.84;2065241;28;20425;-70
2023/09/17 08:23:38;;;;;;;7.17;2.83;;;;;;;26.31;56.16;96562.16;2063801;28;20428;-69
2023/09/17 08:24:40;;;;;;;9.67;2.60;;;;;;;26.76;55.49;96562.59;2064434;28;20789;-69
2023/09/17 08:25:41;;;;;;;9.40;3.00;;;;;;;27.33;54.61;96562.31;2066959;28;20984;-69
2023/09/17 08:26:43;;;;;;;7.53;2.95;;;;;;;27.18;54.81;96556.06;2065457;28;20203;-69
2023/09/17 08:27:48;;;;;;;8.18;2.47;;;;;;;27.68;54.28;96560.16;2064708;28;20721;-69
2023/09/17 08:28:50;;;;;;;5.65;2.22;;;;;;;28.06;52.93;96562.06;2064533;28;20199;-69
2023/09/17 08:29:51;;;;;;;6.93;2.70;;;;;;;28.18;52.90;96555.22;2065658;28;20708;-69
2023/09/17 08:30:53;;;;;;;7.10;2.40;;;;;;;28.65;52.07;96555.94;2063222;28;21220;-69
2023/09/17 08:31:54;;;;;;;6.22;2.40;;;;;;;28.14;51.87;96558.47;2061336;28;20199;-69
2023/09/17 08:32:57;;;;;;;5.90;2.17;;;;;;;27.94;52.86;96558.94;2058445;28;20234;-69
2023/09/17 08:34:02;;;;;;;8.60;3.08;;;;;;;28.15;52.78;96550.25;2064636;28;20246;-69
2023/09/17 08:35:06;;;;;;;8.18;2.47;;;;;;;28.06;52.29;96559.38;2069148;28;20199;-69
2023/09/17 08:36:09;;;;;;;5.80;2.28;;;;;;;28.70;51.59;96550.06;2067630;28;20306;-69
2023/09/17 08:37:11;;;;;;;6.22;2.40;;;;;;;28.56;51.59;96550.84;2067058;28;20203;-69
2023/09/17 08:38:12;;;;;;;6.55;2.42;;;;;;;28.27;52.55;96544.44;2066812;28;20285;-69
2023/09/17 08:39:14;;;;;;;7.05;2.88;;;;;;;28.58;51.72;96563.09;2067749;28;20226;-69
2023/09/17 08:40:17;;;;;;;7.70;3.15;;;;;;;27.88;51.85;96562.31;2061449;28;20248;-69
2023/09/17 08:41:22;;;;;;;7.22;2.38;;;;;;;27.72;51.37;96560.63;2063163;28;20203;-70
2023/09/17 08:42:26;;;;;;;6.70;2.30;;;;;;;27.39;52.38;96566.19;2063964;28;20783;-70
2023/09/17 08:43:28;;;;;;;4.38;2.00;;;;;;;27.41;52.83;96558.78;2064107;28;20196;-69
2023/09/17 08:44:31;;;;;;;13.30;2.72;;;;;;;27.19;53.46;96563.09;2061735;28;20223;-69
2023/09/17 08:45:33;;;;;;;10.43;2.40;;;;;;;27.07;53.35;96557.28;2064306;28;21252;-69
2023/09/17 08:46:36;;;;;;;10.02;2.63;;;;;;;27.09;53.99;96557.09;2068159;28;20737;-69
2023/09/17 08:47:38;;;;;;;5.53;2.70;;;;;;;27.25;53.87;96558.84;2076063;28;20198;-69
2023/09/17 08:48:40;;;;;;;9.70;2.60;;;;;;;27.39;52.75;96552.78;2075150;28;20202;-69
2023/09/17 08:49:42;;;;;;;15.45;2.92;;;;;;;27.37;53.45;96557.44;2066088;28;20711;-69
2023/09/17 08:50:49;;;;;;;11.65;2.67;;;;;;;27.34;53.73;96547.91;2065627;28;20316;-69
2023/09/17 08:51:52;;;;;;;13.30;3.20;;;;;;;27.45;53.44;96554.78;2073737;28;20206;-69
2023/09/17 08:52:59;;;;;;;5.72;2.85;;;;;;;27.53;53.80;96549.34;2062142;28;20239;-69
2023/09/17 08:54:13;;;;;;;5.95;2.38;;;;;;;27.73;52.67;96548.88;2060429;28;20215;-69
2023/09/17 08:55:17;;;;;;;5.93;2.53;;;;;;;27.21;53.96;96551.19;2064122;28;20202;-69
2023/09/17 08:56:19;;;;;;;14.07;3.25;;;;;;;27.25;53.40;96550.81;2067286;28;20203;-69
2023/09/17 08:57:23;;;;;;;12.07;2.75;;;;;;;27.43;53.58;96550.59;2070607;28;20213;-69
2023/09/17 08:58:44;;;;;;;9.95;2.80;;;;;;;27.50;53.74;96555.06;2065685;28;20539;-69
2023/09/17 08:59:52;;;;;;;4.60;2.63;;;;;;;27.62;52.76;96542.09;2065477;28;20195;-69
2023/09/17 09:00:58;;;;;;;7.95;2.58;;;;;;;27.82;52.88;96555.00;2065341;28;20305;-68
2023/09/17 09:02:05;;;;;;;6.95;2.88;;;;;;;27.90;52.97;96554.94;2064802;28;20202;-68
2023/09/17 09:03:10;;;;;;;15.30;3.15;;;;;;;27.45;53.81;96559.28;2070090;28;20206;-69
2023/09/17 09:04:13;;;;;;;7.07;3.10;;;;;;;28.03;52.64;96554.38;2067025;28;20195;-68
2023/09/17 09:05:17;;;;;;;14.60;2.47;;;;;;;27.99;52.58;96553.03;2065799;28;20200;-68
2023/09/17 09:06:20;;;;;;;11.00;2.53;;;;;;;27.93;52.29;96548.38;2064738;28;20678;-68
2023/09/17 09:07:22;;;;;;;9.93;2.40;;;;;;;27.51;53.17;96548.66;2065846;28;20199;-69
2023/09/17 09:08:25;;;;;;;8.20;2.08;;;;;;;27.67;52.78;96546.91;2067898;28;20689;-69
2023/09/17 09:09:27;;;;;;;9.63;3.60;;;;;;;28.03;52.89;96549.00;2064845;28;20211;-68
2023/09/17 09:10:29;;;;;;;6.07;2.42;;;;;;;27.66;52.63;96548.75;2065401;28;20226;-70
2023/09/17 09:11:34;;;;;;;7.30;2.28;;;;;;;27.67;52.46;96546.91;2066610;28;20211;-68
2023/09/17 09:12:38;;;;;;;7.85;2.80;;;;;;;27.74;52.32;96549.72;2063651;28;20200;-69
2023/09/17 09:13:40;;;;;;;4.30;2.15;;;;;;;27.92;52.14;96544.88;2068254;28;20198;-68
2023/09/17 09:14:43;;;;;;;5.07;2.30;;;;;;;27.62;52.45;96534.03;2064910;28;20212;-68
2023/09/17 09:15:45;;;;;;;9.27;2.45;;;;;;;27.57;52.86;96544.47;2066663;28;20241;-69
2023/09/17 09:16:47;;;;;;;8.90;3.10;;;;;;;27.64;52.50;96541.91;2068159;28;20194;-68
2023/09/17 09:17:49;;;;;;;9.70;2.70;;;;;;;28.02;52.33;96552.66;2063156;28;20202;-68
2023/09/17 09:18:50;;;;;;;6.45;2.30;;;;;;;28.36;52.35;96543.31;2063913;28;20269;-68
2023/09/17 09:19:52;;;;;;;8.98;2.45;;;;;;;28.33;51.50;96547.22;2067585;28;20202;-68
2023/09/17 09:20:54;;;;;;;9.32;2.75;;;;;;;27.85;52.40;96547.44;2065344;28;20226;-68
2023/09/17 09:21:55;;;;;;;8.07;2.50;;;;;;;27.63;52.88;96543.75;2063903;28;20642;-69
2023/09/17 09:22:57;;;;;;;11.52;3.08;;;;;;;27.40;52.66;96550.94;2066433;28;20278;-68
2023/09/17 09:23:59;;;;;;;9.15;2.30;;;;;;;27.69;52.92;96539.50;2063824;28;20291;-68
2023/09/17 09:25:01;;;;;;;10.25;3.25;;;;;;;27.51;52.38;96543.31;2064327;28;20587;-69
2023/09/17 09:26:04;;;;;;;6.05;2.53;;;;;;;27.95;51.82;96549.06;2065003;28;20226;-68
2023/09/17 09:27:06;;;;;;;11.55;2.55;;;;;;;28.02;51.31;96540.09;2069924;28;20617;-69
2023/09/17 09:28:07;;;;;;;8.68;2.45;;;;;;;28.17;52.04;96544.69;2065890;28;20207;-68
2023/09/17 09:29:08;;;;;;;11.18;2.67;;;;;;;27.73;52.06;96537.31;2067727;28;20198;-68
2023/09/17 09:30:12;;;;;;;8.27;2.20;;;;;;;28.41;51.62;96540.09;2062903;28;20194;-68
2023/09/17 09:31:14;;;;;;;9.90;2.90;;;;;;;28.42;51.26;96531.84;2065842;28;20614;-68
2023/09/17 09:32:17;;;;;;;10.27;2.78;;;;;;;28.06;51.24;96540.59;2067001;28;20230;-69
2023/09/17 09:33:21;;;;;;;8.70;2.58;;;;;;;28.30;50.67;96544.91;2065056;28;20205;-69
2023/09/17 09:34:25;;;;;;;12.25;2.70;;;;;;;28.34;50.47;96539.97;2066087;28;20670;-68
2023/09/17 09:35:26;;;;;;;11.63;3.05;;;;;;;28.61;51.17;96543.09;2064874;28;20487;-68
2023/09/17 09:36:32;;;;;;;9.18;2.80;;;;;;;28.57;50.01;96542.63;2060344;28;20195;-68
2023/09/17 09:37:35;;;;;;;6.97;2.25;;;;;;;28.84;49.47;96540.31;2060532;28;20199;-68
2023/09/17 09:38:36;;;;;;;4.45;2.15;;;;;;;29.09;49.83;96532.78;2065132;28;20199;-68
2023/09/17 09:39:41;;;;;;;11.35;3.50;;;;;;;29.42;49.13;96537.75;2063320;28;20216;-68
2023/09/17 09:40:43;;;;;;;5.72;2.00;;;;;;;29.38;48.71;96536.47;2066291;28;20235;-68
2023/09/17 09:41:44;;;;;;;9.70;2.75;;;;;;;29.78;47.60;96539.53;2066607;28;20240;-68
2023/09/17 09:42:46;;;;;;;13.25;3.00;;;;;;;30.22;46.92;96540.38;2069984;28;20248;-68
2023/09/17 09:43:49;;;;;;;9.52;2.80;;;;;;;29.46;47.92;96539.00;2061511;28;20613;-68
2023/09/17 09:44:51;;;;;;;11.13;2.50;;;;;;;29.88;47.83;96531.19;2063869;28;20205;-68
2023/09/17 09:45:53;;;;;;;13.68;2.97;;;;;;;30.20;47.47;96534.34;2062163;28;20315;-69
2023/09/17 09:47:02;;;;;;;6.73;2.90;;;;;;;30.50;46.53;96538.72;2064510;28;20195;-68
2023/09/17 09:48:13;;;;;;;12.83;2.43;;;;;;;29.62;47.33;96526.34;2066240;28;20463;-69
2023/09/17 09:49:14;;;;;;;11.85;2.65;;;;;;;29.70;47.79;96534.31;2064227;28;20458;-68
2023/09/17 09:50:26;;;;;;;4.77;2.30;;;;;;;29.74;48.68;96527.50;2067382;28;20199;-68
2023/09/17 09:51:31;;;;;;;9.32;2.53;;;;;;;28.98;49.16;96534.09;2063549;28;20437;-68
2023/09/17 09:52:33;;;;;;;8.85;2.47;;;;;;;29.14;49.30;96529.50;2064488;28;20286;-69
2023/09/17 09:53:35;;;;;;;8.70;2.80;;;;;;;28.48;50.16;96528.44;2066622;28;20650;-69
2023/09/17 09:54:36;;;;;;;6.95;2.50;;;;;;;29.61;48.52;96520.13;2066743;28;20589;-69
2023/09/17 09:55:39;;;;;;;9.23;3.20;;;;;;;29.84;48.03;96534.41;2065492;28;20583;-68
2023/09/17 09:56:41;;;;;;;11.48;2.95;;;;;;;29.94;47.42;96525.03;2068649;28;20207;-69
2023/09/17 09:57:42;;;;;;;13.10;2.72;;;;;;;30.40;47.21;96523.72;2066945;28;20269;-69
2023/09/17 09:58:45;;;;;;;12.63;3.10;;;;;;;31.08;46.46;96517.72;2069007;28;20244;-69
2023/09/17 09:59:48;;;;;;;7.10;2.10;;;;;;;30.84;46.44;96510.09;2068705;28;20424;-69
2023/09/17 10:00:50;;;;;;;9.25;2.45;;;;;;;30.29;47.06;96511.59;2066337;28;20464;-69
2023/09/17 10:01:51;;;;;;;6.75;2.42;;;;;;;29.69;48.12;96515.63;2069243;28;20190;-69
2023/09/17 10:02:53;;;;;;;8.07;2.30;;;;;;;30.22;46.70;96509.91;2065576;28;20252;-69
2023/09/17 10:03:58;;;;;;;9.93;3.93;;;;;;;30.89;46.17;96515.72;2060031;28;20886;-68
2023/09/17 10:05:01;;;;;;;14.27;5.47;;;;;;;32.48;43.89;96518.94;2062502;28;20430;-70
2023/09/17 10:06:06;;;;;;;13.90;3.07;;;;;;;32.13;43.76;96519.16;2064485;28;20463;-68
2023/09/17 10:07:09;;;;;;;10.17;3.80;;;;;;;31.97;44.14;96506.06;2060691;28;20449;-68
2023/09/17 10:08:17;;;;;;;5.53;2.37;;;;;;;32.08;43.66;96505.44;2067459;28;20432;-68
2023/09/17 10:09:18;;;;;;;8.80;2.80;;;;;;;32.16;43.73;96507.91;2067879;28;20459;-68
2023/09/17 10:10:20;;;;;;;10.60;1.90;;;;;;;31.63;43.79;96499.81;2068614;28;20741;-69
2023/09/17 10:11:22;;;;;;;9.97;2.50;;;;;;;31.89;43.92;96496.31;2063679;28;20441;-69
2023/09/17 10:12:25;;;;;;;12.13;2.57;;;;;;;32.11;43.69;96496.09;2067779;28;20440;-69
2023/09/17 10:13:27;;;;;;;10.17;2.40;;;;;;;32.28;43.70;96496.50;2068870;28;20428;-69
2023/09/17 10:14:30;;;;;;;8.23;2.57;;;;;;;31.83;43.78;96505.22;2066936;28;20482;-69
2023/09/17 10:15:32;;;;;;;7.77;1.93;;;;;;;31.18;43.46;96520.00;2064152;28;20461;-69
2023/09/17 10:16:36;;;;;;;7.37;2.30;;;;;;;30.52;44.19;96512.41;2062128;28;20451;-69
2023/09/17 10:17:39;;;;;;;10.87;2.20;;;;;;;30.28;44.77;96504.59;2065258;28;20463;-69
2023/09/17 10:18:42;;;;;;;5.07;1.70;;;;;;;29.93;46.35;96515.28;2066439;28;20425;-69
2023/09/17 10:19:46;;;;;;;6.17;2.60;;;;;;;29.71;46.74;96516.28;2064743;28;20432;-69
2023/09/17 10:20:52;;;;;;;8.80;2.50;;;;;;;29.55;47.47;96515.53;2066013;28;20482;-69
2023/09/17 10:21:55;;;;;;;8.60;2.73;;;;;;;29.85;46.57;96509.16;2065021;28;21054;-69
2023/09/17 10:22:58;;;;;;;11.83;2.60;;;;;;;29.83;46.23;96506.69;2066899;28;20436;-69
2023/09/17 10:24:00;;;;;;;8.07;2.23;;;;;;;29.29;46.74;96505.31;2065498;28;20430;-69
2023/09/17 10:25:08;;;;;;;8.13;2.30;;;;;;;29.24;47.05;96511.25;2067873;28;20813;-68
2023/09/17 10:26:10;;;;;;;7.97;1.90;;;;;;;28.87;47.74;96509.56;2063006;28;20452;-68
2023/09/17 10:27:13;;;;;;;13.93;2.27;;;;;;;28.83;47.83;96509.09;2063471;28;20507;-69
2023/09/17 10:28:16;;;;;;;8.60;2.70;;;;;;;28.97;48.25;96510.09;2061697;28;20433;-68
2023/09/17 10:29:21;;;;;;;12.70;2.00;;;;;;;28.71;48.29;96510.59;2064371;28;20478;-68
2023/09/17 10:30:23;;;;;;;12.63;2.03;;;;;;;28.41;49.86;96521.31;2063510;28;20219;-69
2023/09/17 10:31:25;;;;;;;6.82;2.63;;;;;;;28.64;49.17;96500.53;2063530;28;20916;-68
2023/09/17 10:32:28;;;;;;;8.77;2.47;;;;;;;29.05;48.08;96512.69;2068030;28;20838;-69
2023/09/17 10:33:32;;;;;;;8.27;2.30;;;;;;;28.87;48.13;96502.31;2067983;28;20195;-69
2023/09/17 10:34:35;;;;;;;9.45;2.85;;;;;;;29.49;47.38;96500.97;2062167;28;20206;-69
2023/09/17 10:35:38;;;;;;;8.45;2.63;;;;;;;30.02;46.87;96502.53;2066443;28;20283;-69
2023/09/17 10:36:42;;;;;;;7.93;2.40;;;;;;;29.99;46.93;96499.38;2066156;28;20203;-69
2023/09/17 10:37:46;;;;;;;12.63;2.67;;;;;;;30.33;46.67;96500.47;2069248;28;20205;-69
2023/09/17 10:38:50;;;;;;;5.25;2.05;;;;;;;30.06;46.28;96493.03;2066617;28;20195;-69
2023/09/17 10:39:54;;;;;;;13.95;2.55;;;;;;;30.28;45.76;96498.34;2066250;28;20202;-69
2023/09/17 10:40:56;;;;;;;8.40;2.20;;;;;;;29.89;46.56;96494.31;2062870;28;20257;-69
2023/09/17 10:42:01;;;;;;;14.25;2.83;;;;;;;30.15;46.19;96492.88;2065798;28;20209;-69
2023/09/17 10:43:06;;;;;;;14.77;2.53;;;;;;;30.20;45.43;96498.50;2061391;28;20217;-69
2023/09/17 10:44:07;;;;;;;7.67;2.10;;;;;;;29.70;45.60;96488.56;2062973;28;20430;-69
2023/09/17 10:45:12;;;;;;;6.80;1.80;;;;;;;29.62;46.23;96488.69;2065918;28;20979;-68
2023/09/17 10:46:15;;;;;;;7.23;1.97;;;;;;;30.12;45.18;96488.72;2064651;28;20203;-69
2023/09/17 10:47:18;;;;;;;9.13;1.83;;;;;;;29.80;45.59;96494.44;2067956;28;20438;-69
2023/09/17 10:48:21;;;;;;;5.57;1.50;;;;;;;29.75;45.67;96488.81;2067685;28;20431;-69
2023/09/17 10:49:25;;;;;;;5.23;2.27;;;;;;;29.90;46.38;96488.78;2064274;28;20434;-68
2023/09/17 10:50:29;;;;;;;10.50;1.90;;;;;;;29.99;46.75;96485.94;2060408;28;20471;-68
2023/09/17 10:51:32;;;;;;;7.82;2.78;;;;;;;30.37;46.16;96491.81;2067549;28;20432;-69
2023/09/17 10:52:34;;;;;;;7.57;2.30;;;;;;;30.57;44.89;96483.03;2066356;28;20194;-68
2023/09/17 10:53:36;;;;;;;6.63;1.90;;;;;;;30.37;44.81;96489.09;2064662;28;20430;-69
2023/09/17 10:54:38;;;;;;;8.93;2.20;;;;;;;30.41;44.90;96487.66;2065564;28;20834;-69
2023/09/17 10:55:44;;;;;;;10.10;2.17;;;;;;;30.62;44.46;96476.00;2065927;28;21030;-67
2023/09/17 10:56:46;;;;;;;9.50;2.00;;;;;;;30.71;44.75;96484.75;2064897;28;20512;-68
2023/09/17 10:57:59;;;;;;;8.33;1.80;;;;;;;31.05;44.41;96472.25;2065141;28;20952;-68
2023/09/17 10:59:00;;;;;;;10.93;1.83;;;;;;;30.75;43.75;96472.56;2061212;28;20577;-68
2023/09/17 11:00:07;;;;;;;6.77;2.00;;;;;;;31.00;44.00;96477.41;2060799;28;20424;-68
2023/09/17 11:01:14;;;;;;;11.97;3.30;;;;;;;30.70;44.20;96476.88;2064595;28;20483;-68
2023/09/17 11:02:17;;;;;;;16.93;1.97;;;;;;;30.91;44.38;96475.94;2065510;28;20515;-68
2023/09/17 11:03:22;;;;;;;9.87;1.70;;;;;;;31.29;43.73;96474.59;2065341;28;20498;-69
2023/09/17 11:04:26;;;;;;;4.40;1.77;;;;;;;31.98;42.36;96472.63;2065596;28;20439;-69
2023/09/17 11:05:30;;;;;;;6.83;2.00;;;;;;;31.69;42.55;96478.25;2064526;28;20457;-68
2023/09/17 11:06:34;;;;;;;4.80;1.77;;;;;;;31.41;42.12;96478.38;2066889;28;20452;-68
2023/09/17 11:07:37;;;;;;;6.73;1.97;;;;;;;31.75;42.32;96469.31;2067401;28;20432;-68
2023/09/17 11:08:40;;;;;;;7.80;2.47;;;;;;;31.15;41.62;96471.88;2064293;28;20421;-68
2023/09/17 11:09:42;;;;;;;10.80;2.83;;;;;;;31.23;41.92;96471.69;2066551;28;20832;-68
2023/09/17 11:10:43;;;;;;;6.13;1.90;;;;;;;31.32;42.07;96474.22;2066065;28;20490;-68
2023/09/17 11:11:45;;;;;;;7.00;2.00;;;;;;;31.32;41.75;96461.53;2063695;28;20498;-68
2023/09/17 11:12:47;;;;;;;5.83;1.50;;;;;;;31.20;41.24;96473.97;2063349;28;20424;-68
2023/09/17 11:13:51;;;;;;;6.90;1.77;;;;;;;30.95;42.28;96469.09;2062685;28;20483;-68
2023/09/17 11:14:53;;;;;;;8.07;1.87;;;;;;;31.41;41.83;96470.28;2065663;28;20443;-68
2023/09/17 11:15:56;;;;;;;6.77;1.93;;;;;;;31.58;41.10;96468.03;2061792;28;20468;-68
2023/09/17 11:16:57;;;;;;;15.13;2.43;;;;;;;31.53;41.37;96481.31;2062740;28;20421;-68
2023/09/17 11:18:00;;;;;;;7.23;2.23;;;;;;;30.94;42.53;96470.97;2068844;28;20502;-68
2023/09/17 11:19:21;;;;;;;4.90;1.60;;;;;;;30.75;42.49;96487.88;2067480;28;20834;-68
2023/09/17 11:20:22;;;;;;;7.30;2.07;;;;;;;30.48;43.17;96481.53;2063584;28;20479;-68
2023/09/17 11:21:26;;;;;;;4.57;1.90;;;;;;;30.87;43.16;96472.81;2062488;28;20441;-68
2023/09/17 11:22:35;;;;;;;10.73;2.00;;;;;;;30.84;43.32;96475.88;2062107;28;20456;-68
2023/09/17 11:23:46;;;;;;;5.77;1.93;;;;;;;31.37;42.27;96475.25;2062128;28;20432;-67
2023/09/17 11:24:50;;;;;;;8.17;1.63;;;;;;;31.33;42.51;96467.78;2064199;28;20430;-68
2023/09/17 11:25:54;;;;;;;4.50;1.83;;;;;;;31.67;42.60;96483.00;2058589;28;21144;-67
2023/09/17 11:26:57;;;;;;;10.33;1.97;;;;;;;31.27;41.88;96477.50;2068373;28;20428;-68
2023/09/17 11:28:07;;;;;;;5.17;1.90;;;;;;;31.78;41.45;96473.44;2065165;28;20448;-67
2023/09/17 11:29:10;;;;;;;7.37;1.87;;;;;;;32.07;41.36;96474.91;2064293;28;20498;-68
2023/09/17 11:30:16;;;;;;;6.50;1.97;;;;;;;31.70;42.55;96473.66;2066646;28;20846;-67
2023/09/17 11:31:18;;;;;;;4.63;1.67;;;;;;;31.23;43.28;96476.25;2066217;28;20780;-67
2023/09/17 11:32:21;;;;;;;9.50;1.80;;;;;;;31.61;42.57;96469.50;2066030;28;20507;-68
2023/09/17 11:33:24;;;;;;;8.80;1.83;;;;;;;30.88;43.58;96468.22;2065432;28;20436;-68
2023/09/17 11:34:26;;;;;;;3.73;1.40;;;;;;;30.45;44.01;96469.25;2064700;28;20433;-67
2023/09/17 11:35:27;;;;;;;4.83;1.47;;;;;;;30.56;44.39;96473.28;2065582;28;20544;-67
2023/09/17 11:36:31;;;;;;;4.43;2.30;;;;;;;29.99;44.45;96473.28;2064366;28;20515;-67
2023/09/17 11:37:32;;;;;;;5.33;1.60;;;;;;;30.56;44.02;96481.34;2064117;28;20421;-67
2023/09/17 11:38:34;;;;;;;10.70;1.57;;;;;;;30.40;44.03;96477.94;2063432;28;21117;-67
2023/09/17 11:39:36;;;;;;;3.43;1.60;;;;;;;29.86;44.75;96474.00;2064222;28;20432;-67
2023/09/17 11:40:39;;;;;;;6.53;1.90;;;;;;;29.44;46.08;96467.63;2063914;28;20591;-68
2023/09/17 11:41:46;;;;;;;7.13;2.10;;;;;;;29.32;45.91;96465.44;2068572;28;20515;-67
2023/09/17 11:42:47;;;;;;;5.30;1.73;;;;;;;28.97;46.67;96464.41;2065372;28;20437;-68
2023/09/17 11:43:50;;;;;;;7.13;1.65;;;;;;;28.98;46.31;96466.91;2067634;28;20437;-67
2023/09/17 11:44:55;;;;;;;4.90;2.03;;;;;;;28.97;46.25;96467.09;2067397;28;20198;-68
2023/09/17 11:45:56;;;;;;;7.78;1.65;;;;;;;29.47;46.01;96469.91;2064257;28;20747;-68
2023/09/17 11:46:58;;;;;;;4.17;1.57;;;;;;;30.07;44.78;96461.56;2066104;28;20199;-68
2023/09/17 11:48:04;;;;;;;6.18;1.70;;;;;;;30.33;44.93;96465.47;2064391;28;20430;-68